createdAt,value
2022-12-24T00:01:47.161Z,16.59
2022-12-24T00:04:15.986Z,16.59
2022-12-24T00:06:44.695Z,16.56
2022-12-24T00:09:13.320Z,16.58
2022-12-24T00:11:43.599Z,16.58
2022-12-24T00:14:12.054Z,16.58
2022-12-24T00:16:40.487Z,16.58
2022-12-24T00:19:09.209Z,16.59
2022-12-24T00:21:37.571Z,16.57
2022-12-24T00:24:06.893Z,16.54
2022-12-24T00:26:36.040Z,16.54
2022-12-24T00:29:05.841Z,16.55
2022-12-24T00:31:34.307Z,16.52
2022-12-24T00:34:02.634Z,16.52
2022-12-24T00:36:31.112Z,16.52
2022-12-24T00:39:02.393Z,16.52
2022-12-24T00:41:31.028Z,16.51
2022-12-24T00:44:02.320Z,16.53
2022-12-24T00:46:34.527Z,16.54
2022-12-24T00:49:04.039Z,16.51
2022-12-24T00:51:33.078Z,16.50
2022-12-24T00:54:01.565Z,16.51
2022-12-24T00:56:30.127Z,16.51
2022-12-24T00:58:58.717Z,16.52
2022-12-24T01:01:27.623Z,16.52
2022-12-24T01:04:18.412Z,16.51
2022-12-24T01:06:46.005Z,16.51
2022-12-24T01:09:14.825Z,16.51
2022-12-24T01:11:43.672Z,16.51
2022-12-24T01:14:12.262Z,16.48
2022-12-24T01:16:40.890Z,16.48
2022-12-24T01:19:10.996Z,16.45
2022-12-24T01:21:39.501Z,16.45
2022-12-24T01:24:08.383Z,16.45
2022-12-24T01:26:36.863Z,16.43
2022-12-24T01:29:05.459Z,16.43
2022-12-24T01:31:34.040Z,16.43
2022-12-24T01:34:02.626Z,16.44
2022-12-24T01:36:32.563Z,16.45
2022-12-24T01:39:01.139Z,16.44
2022-12-24T01:41:55.056Z,16.45
2022-12-24T01:44:35.209Z,16.42
2022-12-24T01:47:10.562Z,16.42
2022-12-24T01:49:42.668Z,16.41
2022-12-24T01:52:17.412Z,16.40
2022-12-24T01:54:51.184Z,16.40
2022-12-24T01:57:23.834Z,16.39
2022-12-24T01:59:57.901Z,16.40
2022-12-24T02:02:28.195Z,16.39
2022-12-24T02:05:03.417Z,16.39
2022-12-24T02:07:34.173Z,16.36
2022-12-24T02:10:03.925Z,16.36
2022-12-24T02:12:36.009Z,16.36
2022-12-24T02:15:06.210Z,16.34
2022-12-24T02:17:42.589Z,16.35
2022-12-24T02:20:42.465Z,16.33
2022-12-24T02:24:04.991Z,16.31
2022-12-24T02:27:00.003Z,16.30
2022-12-24T02:30:02.664Z,16.30
2022-12-24T02:32:41.982Z,16.28
2022-12-24T02:35:17.391Z,16.29
2022-12-24T02:37:51.055Z,16.26
2022-12-24T02:40:25.145Z,16.25
2022-12-24T02:42:59.341Z,16.25
2022-12-24T02:45:32.091Z,16.27
2022-12-24T02:48:01.546Z,16.26
2022-12-24T02:50:30.859Z,16.25
2022-12-24T02:52:59.366Z,16.25
2022-12-24T02:55:41.217Z,16.24
2022-12-24T02:58:29.112Z,16.25
2022-12-24T03:01:17.914Z,16.24
2022-12-24T03:04:05.975Z,16.22
2022-12-24T03:06:45.467Z,16.22
2022-12-24T03:09:22.261Z,16.21
2022-12-24T03:11:59.893Z,16.23
2022-12-24T03:14:30.051Z,16.24
2022-12-24T03:17:01.616Z,16.24
2022-12-24T03:19:30.506Z,16.24
2022-12-24T03:22:01.060Z,16.24
2022-12-24T03:24:29.521Z,16.24
2022-12-24T03:26:58.365Z,16.25
2022-12-24T03:29:27.312Z,16.26
2022-12-24T03:32:04.772Z,16.26
2022-12-24T03:34:33.302Z,16.27
2022-12-24T03:37:02.066Z,16.26
2022-12-24T03:39:30.560Z,16.27
2022-12-24T03:41:58.933Z,16.27
2022-12-24T03:44:27.370Z,16.29
2022-12-24T03:46:55.876Z,16.28
2022-12-24T03:49:25.930Z,16.29
2022-12-24T03:51:54.366Z,16.28
2022-12-24T03:54:22.767Z,16.28
2022-12-24T03:56:51.135Z,16.28
2022-12-24T03:59:19.703Z,16.30
2022-12-24T04:01:48.453Z,16.31
2022-12-24T04:04:17.048Z,16.31
2022-12-24T04:06:47.361Z,16.31
2022-12-24T04:09:15.884Z,16.31
2022-12-24T04:11:44.232Z,16.31
2022-12-24T04:14:12.717Z,16.31
2022-12-24T04:16:41.363Z,16.32
2022-12-24T04:19:09.798Z,16.31
2022-12-24T04:21:38.918Z,16.32
2022-12-24T04:24:09.176Z,16.32
2022-12-24T04:26:37.654Z,16.32
2022-12-24T04:29:06.113Z,16.31
2022-12-24T04:31:34.800Z,16.32
2022-12-24T04:34:03.261Z,16.33
2022-12-24T04:36:31.641Z,16.33
2022-12-24T04:38:59.999Z,16.31
2022-12-24T04:41:29.826Z,16.30
2022-12-24T04:43:58.460Z,16.29
2022-12-24T04:46:30.941Z,16.28
2022-12-24T04:49:00.624Z,16.28
2022-12-24T04:51:30.553Z,16.27
2022-12-24T04:53:59.438Z,16.28
2022-12-24T04:56:31.425Z,16.29
2022-12-24T04:59:01.362Z,16.30
2022-12-24T05:01:32.303Z,16.30
2022-12-24T05:04:01.583Z,16.30
2022-12-24T05:06:33.249Z,16.30
2022-12-24T05:09:02.239Z,16.32
2022-12-24T05:11:33.088Z,16.31
2022-12-24T05:14:01.487Z,16.31
2022-12-24T05:16:30.004Z,16.31
2022-12-24T05:18:58.825Z,16.30
2022-12-24T05:21:27.863Z,16.30
2022-12-24T05:24:13.870Z,16.28
2022-12-24T05:26:47.816Z,16.27
2022-12-24T05:29:16.810Z,16.26
2022-12-24T05:31:47.100Z,16.25
2022-12-24T05:34:17.214Z,16.26
2022-12-24T05:36:46.215Z,16.26
2022-12-24T05:39:17.369Z,16.27
2022-12-24T05:41:48.605Z,16.26
2022-12-24T05:44:18.423Z,16.26
2022-12-24T05:46:47.024Z,16.25
2022-12-24T05:49:15.943Z,16.25
2022-12-24T05:51:45.112Z,16.25
2022-12-24T05:54:14.217Z,16.25
2022-12-24T05:56:42.658Z,16.27
2022-12-24T05:59:13.376Z,16.26
2022-12-24T06:01:45.577Z,16.27
2022-12-24T06:04:14.248Z,16.29
2022-12-24T06:06:42.679Z,16.28
2022-12-24T06:09:11.000Z,16.28
2022-12-24T06:11:39.519Z,16.30
2022-12-24T06:14:08.197Z,16.29
2022-12-24T06:16:38.527Z,16.30
2022-12-24T06:19:07.378Z,16.30
2022-12-24T06:21:35.739Z,16.30
2022-12-24T06:24:04.629Z,16.31
2022-12-24T06:26:32.928Z,16.30
2022-12-24T06:29:01.231Z,16.32
2022-12-24T06:31:29.890Z,16.31
2022-12-24T06:33:59.675Z,16.30
2022-12-24T06:36:28.063Z,16.30
2022-12-24T06:38:57.084Z,16.30
2022-12-24T06:41:25.818Z,16.29
2022-12-24T06:43:55.597Z,16.28
2022-12-24T06:46:24.202Z,16.28
2022-12-24T06:48:52.580Z,16.28
2022-12-24T06:51:22.869Z,16.29
2022-12-24T06:53:51.957Z,16.30
2022-12-24T06:56:22.317Z,16.30
2022-12-24T06:58:51.068Z,16.29
2022-12-24T07:01:21.606Z,16.28
2022-12-24T07:03:50.448Z,16.29
2022-12-24T07:06:25.693Z,16.28
2022-12-24T07:08:54.497Z,16.28
2022-12-24T07:11:24.575Z,16.30
2022-12-24T07:13:53.137Z,16.29
2022-12-24T07:16:21.865Z,16.30
2022-12-24T07:18:50.476Z,16.30
2022-12-24T07:21:18.848Z,16.30
2022-12-24T07:23:48.666Z,16.31
2022-12-24T07:26:17.961Z,16.31
2022-12-24T07:28:46.509Z,16.32
2022-12-24T07:31:15.394Z,16.32
2022-12-24T07:33:43.817Z,16.32
2022-12-24T07:36:19.937Z,16.32
2022-12-24T07:38:50.221Z,16.30
2022-12-24T07:41:19.471Z,16.30
2022-12-24T07:43:47.976Z,16.30
2022-12-24T07:46:16.523Z,16.29
2022-12-24T07:48:45.408Z,16.30
2022-12-24T07:51:13.743Z,16.29
2022-12-24T07:53:47.586Z,16.28
2022-12-24T07:56:18.488Z,16.29
2022-12-24T07:58:47.063Z,16.27
2022-12-24T08:01:15.641Z,16.26
2022-12-24T08:03:44.654Z,16.26
2022-12-24T08:06:13.129Z,16.26
2022-12-24T08:08:41.775Z,16.25
2022-12-24T08:11:10.365Z,16.27
2022-12-24T08:13:40.766Z,16.27
2022-12-24T08:16:09.224Z,16.28
2022-12-24T08:18:37.973Z,16.28
2022-12-24T08:21:09.587Z,16.28
2022-12-24T08:23:39.149Z,16.28
2022-12-24T08:26:09.727Z,16.29
2022-12-24T08:28:39.684Z,16.28
2022-12-24T08:31:08.693Z,16.30
2022-12-24T08:33:37.302Z,16.29
2022-12-24T08:36:06.548Z,16.29
2022-12-24T08:38:34.955Z,16.30
2022-12-24T08:41:03.357Z,16.31
2022-12-24T08:43:31.888Z,16.30
2022-12-24T08:46:06.540Z,16.31
2022-12-24T08:48:35.451Z,16.32
2022-12-24T08:51:09.682Z,16.34
2022-12-24T08:53:38.598Z,16.34
2022-12-24T08:56:10.458Z,16.35
2022-12-24T08:58:40.176Z,16.35
2022-12-24T09:01:15.355Z,16.37
2022-12-24T09:03:44.243Z,16.36
2022-12-24T09:06:13.365Z,16.35
2022-12-24T09:08:41.896Z,16.35
2022-12-24T09:11:14.348Z,16.36
2022-12-24T09:13:44.647Z,16.34
2022-12-24T09:16:14.991Z,16.36
2022-12-24T09:18:44.159Z,16.35
2022-12-24T09:21:15.760Z,16.36
2022-12-24T09:23:47.001Z,16.37
2022-12-24T09:26:18.636Z,16.39
2022-12-24T09:28:47.171Z,16.39
2022-12-24T09:31:18.125Z,16.41
2022-12-24T09:33:49.790Z,16.42
2022-12-24T09:36:19.714Z,16.42
2022-12-24T09:38:49.163Z,16.44
2022-12-24T09:41:34.819Z,16.44
2022-12-24T09:44:24.305Z,16.45
2022-12-24T09:46:55.623Z,16.44
2022-12-24T09:49:38.733Z,16.46
2022-12-24T09:52:12.251Z,16.46
2022-12-24T09:54:49.795Z,16.50
2022-12-24T09:57:30.027Z,16.51
2022-12-24T09:59:58.543Z,16.52
2022-12-24T10:02:28.407Z,16.54
2022-12-24T10:04:56.964Z,16.56
2022-12-24T10:07:37.714Z,16.59
2022-12-24T10:10:22.485Z,16.59
2022-12-24T10:13:02.749Z,16.61
2022-12-24T10:15:36.813Z,16.62
2022-12-24T10:18:25.785Z,16.64
2022-12-24T10:21:01.630Z,16.62
2022-12-24T10:23:36.190Z,16.61
2022-12-24T10:26:14.516Z,16.63
2022-12-24T10:28:49.388Z,16.64
2022-12-24T10:31:19.331Z,16.64
2022-12-24T10:33:55.591Z,16.65
2022-12-24T10:36:29.636Z,16.65
2022-12-24T10:38:58.679Z,16.65
2022-12-24T10:41:28.996Z,16.65
2022-12-24T10:43:58.349Z,16.67
2022-12-24T10:46:36.469Z,16.67
2022-12-24T10:49:08.492Z,16.69
2022-12-24T10:51:44.923Z,16.71
2022-12-24T10:54:20.869Z,16.73
2022-12-24T10:57:00.481Z,16.74
2022-12-24T10:59:32.020Z,16.75
2022-12-24T11:02:03.244Z,16.74
2022-12-24T11:04:47.891Z,16.75
2022-12-24T11:07:23.438Z,16.75
2022-12-24T11:09:58.955Z,16.75
2022-12-24T11:12:32.679Z,16.75
2022-12-24T11:15:05.450Z,16.74
2022-12-24T11:17:35.219Z,16.75
2022-12-24T11:20:09.074Z,16.76
2022-12-24T11:22:37.982Z,16.74
2022-12-24T11:25:21.982Z,16.74
2022-12-24T11:27:52.063Z,16.73
2022-12-24T11:30:32.164Z,16.75
2022-12-24T11:33:22.228Z,16.74
2022-12-24T11:35:57.760Z,16.74
2022-12-24T11:38:28.109Z,16.77
2022-12-24T11:41:09.965Z,16.78
2022-12-24T11:43:47.748Z,16.80
2022-12-24T11:46:23.830Z,16.80
2022-12-24T11:49:15.367Z,16.81
2022-12-24T11:52:19.173Z,16.80
2022-12-24T11:55:16.745Z,16.80
2022-12-24T11:57:55.583Z,16.80
2022-12-24T12:00:24.351Z,16.80
2022-12-24T12:02:53.704Z,16.83
2022-12-24T12:05:28.042Z,16.84
2022-12-24T12:08:08.869Z,16.86
2022-12-24T12:10:41.109Z,16.86
2022-12-24T12:13:16.117Z,16.86
2022-12-24T12:15:51.074Z,16.87
2022-12-24T12:18:26.138Z,16.87
2022-12-24T12:21:00.817Z,16.87
2022-12-24T12:23:34.830Z,16.87
2022-12-24T12:26:09.719Z,16.88
2022-12-24T12:28:42.748Z,16.87
2022-12-24T12:31:20.842Z,16.89
2022-12-24T12:33:55.993Z,16.88
2022-12-24T12:36:28.681Z,16.87
2022-12-24T12:38:58.643Z,16.86
2022-12-24T12:41:47.161Z,16.86
2022-12-24T12:44:47.707Z,16.85
2022-12-24T12:47:41.357Z,16.83
2022-12-24T12:50:19.084Z,16.83
2022-12-24T12:53:06.407Z,16.83
2022-12-24T12:55:50.548Z,16.82
2022-12-24T12:58:26.684Z,16.83
2022-12-24T13:01:01.408Z,16.86
2022-12-24T13:04:16.747Z,16.86
2022-12-24T13:07:24.468Z,16.88
2022-12-24T13:10:19.231Z,16.88
2022-12-24T13:13:20.576Z,16.88
2022-12-24T13:16:21.283Z,16.90
2022-12-24T13:19:04.824Z,16.93
2022-12-24T13:21:34.213Z,16.94
2022-12-24T13:24:17.380Z,16.95
2022-12-24T13:27:02.745Z,16.95
2022-12-24T13:29:43.782Z,16.96
2022-12-24T13:32:55.832Z,16.95
2022-12-24T13:35:37.590Z,16.94
2022-12-24T13:38:44.152Z,16.91
2022-12-24T13:41:55.936Z,16.90
2022-12-24T13:44:36.115Z,16.92
2022-12-24T13:47:29.991Z,16.93
2022-12-24T13:50:25.101Z,16.95
2022-12-24T13:52:54.801Z,16.97
2022-12-24T13:55:24.405Z,17.00
2022-12-24T13:58:00.027Z,17.04
2022-12-24T14:00:42.782Z,17.04
2022-12-24T14:03:31.099Z,17.04
2022-12-24T14:06:03.459Z,17.02
2022-12-24T14:08:43.234Z,17.04
2022-12-24T14:11:15.072Z,17.03
2022-12-24T14:14:28.825Z,17.02
2022-12-24T14:17:00.013Z,17.03
2022-12-24T14:19:41.405Z,17.02
2022-12-24T14:22:28.496Z,17.02
2022-12-24T14:25:00.078Z,17.02
2022-12-24T14:27:35.612Z,17.01
2022-12-24T14:30:10.735Z,16.98
2022-12-24T14:32:41.204Z,16.98
2022-12-24T14:35:18.643Z,16.98
2022-12-24T14:37:50.681Z,16.96
2022-12-24T14:40:23.660Z,16.96
2022-12-24T14:43:04.372Z,16.96
2022-12-24T14:45:41.715Z,16.95
2022-12-24T14:48:18.559Z,16.94
2022-12-24T14:51:01.345Z,16.94
2022-12-24T14:53:49.540Z,16.93
2022-12-24T14:56:20.796Z,16.93
2022-12-24T14:58:50.144Z,16.92
2022-12-24T15:01:25.306Z,16.91
2022-12-24T15:04:05.948Z,16.88
2022-12-24T15:06:40.431Z,16.87
2022-12-24T15:09:18.545Z,16.86
2022-12-24T15:11:48.901Z,16.85
2022-12-24T15:14:18.466Z,16.86
2022-12-24T15:16:55.685Z,16.86
2022-12-24T15:19:28.732Z,16.83
2022-12-24T15:21:58.977Z,16.84
2022-12-24T15:24:29.903Z,16.82
2022-12-24T15:26:58.398Z,16.82
2022-12-24T15:29:30.598Z,16.80
2022-12-24T15:32:02.088Z,16.79
2022-12-24T15:34:38.438Z,16.77
2022-12-24T15:37:13.828Z,16.77
2022-12-24T15:39:43.436Z,16.74
2022-12-24T15:42:19.009Z,16.76
2022-12-24T15:45:00.704Z,16.73
2022-12-24T15:47:37.875Z,16.71
2022-12-24T15:50:16.331Z,16.71
2022-12-24T15:52:47.458Z,16.69
2022-12-24T15:55:40.811Z,16.69
2022-12-24T15:58:18.392Z,16.70
2022-12-24T16:01:07.481Z,16.69
2022-12-24T16:03:37.175Z,16.68
2022-12-24T16:06:08.362Z,16.67
2022-12-24T16:08:40.058Z,16.66
2022-12-24T16:11:20.105Z,16.63
2022-12-24T16:14:13.859Z,16.63
2022-12-24T16:16:45.294Z,16.61
2022-12-24T16:19:21.444Z,16.61
2022-12-24T16:21:55.228Z,16.60
2022-12-24T16:24:28.942Z,16.59
2022-12-24T16:26:59.475Z,16.58
2022-12-24T16:29:28.390Z,16.56
2022-12-24T16:31:59.250Z,16.55
2022-12-24T16:34:31.117Z,16.54
2022-12-24T16:37:01.211Z,16.51
2022-12-24T16:39:35.411Z,16.51
2022-12-24T16:42:23.025Z,16.48
2022-12-24T16:44:55.510Z,16.46
2022-12-24T16:47:28.660Z,16.45
2022-12-24T16:49:58.047Z,16.43
2022-12-24T16:52:29.613Z,16.41
2022-12-24T16:54:59.681Z,16.38
2022-12-24T16:57:29.588Z,16.38
2022-12-24T16:59:58.110Z,16.34
2022-12-24T17:02:26.762Z,16.33
2022-12-24T17:04:55.922Z,16.31
2022-12-24T17:07:24.789Z,16.29
2022-12-24T17:09:53.739Z,16.29
2022-12-24T17:12:23.603Z,16.27
2022-12-24T17:14:52.067Z,16.26
2022-12-24T17:17:25.277Z,16.25
2022-12-24T17:19:54.128Z,16.24
2022-12-24T17:22:22.862Z,16.22
2022-12-24T17:24:51.435Z,16.21
2022-12-24T17:27:19.937Z,16.20
2022-12-24T17:29:50.077Z,16.20
2022-12-24T17:32:18.528Z,16.19
2022-12-24T17:34:46.903Z,16.17
2022-12-24T17:37:15.590Z,16.17
2022-12-24T17:39:43.853Z,16.16
2022-12-24T17:42:12.980Z,16.15
2022-12-24T17:44:41.318Z,16.14
2022-12-24T17:47:11.287Z,16.15
2022-12-24T17:49:39.905Z,16.12
2022-12-24T17:52:08.517Z,16.12
2022-12-24T17:54:37.336Z,16.11
2022-12-24T17:57:05.872Z,16.09
2022-12-24T17:59:34.361Z,16.09
2022-12-24T18:02:02.822Z,16.07
2022-12-24T18:04:33.009Z,16.09
2022-12-24T18:07:02.997Z,16.06
2022-12-24T18:09:32.107Z,16.06
2022-12-24T18:12:01.039Z,16.04
2022-12-24T18:14:30.150Z,16.03
2022-12-24T18:16:58.586Z,16.02
2022-12-24T18:19:27.276Z,16.02
2022-12-24T18:21:57.499Z,16.02
2022-12-24T18:24:26.113Z,16.00
2022-12-24T18:26:55.175Z,15.99
2022-12-24T18:29:23.585Z,15.97
2022-12-24T18:31:52.335Z,15.97
2022-12-24T18:34:21.169Z,15.97
2022-12-24T18:36:54.795Z,15.96
2022-12-24T18:39:25.027Z,15.96
2022-12-24T18:41:53.502Z,15.93
2022-12-24T18:44:25.303Z,15.93
2022-12-24T18:46:55.038Z,15.90
2022-12-24T18:49:23.435Z,15.90
2022-12-24T18:51:51.797Z,15.87
2022-12-24T18:54:20.356Z,15.89
2022-12-24T18:56:52.729Z,15.88
2022-12-24T18:59:21.183Z,15.87
2022-12-24T19:01:50.078Z,15.86
2022-12-24T19:04:18.622Z,15.85
2022-12-24T19:06:52.991Z,15.84
2022-12-24T19:09:21.899Z,15.83
2022-12-24T19:11:52.555Z,15.83
2022-12-24T19:14:21.480Z,15.81
2022-12-24T19:16:50.221Z,15.80
2022-12-24T19:19:23.920Z,15.79
2022-12-24T19:21:54.029Z,15.77
2022-12-24T19:24:22.454Z,15.77
2022-12-24T19:26:52.747Z,15.77
2022-12-24T19:29:21.414Z,15.76
2022-12-24T19:31:49.955Z,15.74
2022-12-24T19:34:19.335Z,15.74
2022-12-24T19:36:48.161Z,15.72
2022-12-24T19:39:16.913Z,15.73
2022-12-24T19:41:45.312Z,15.72
2022-12-24T19:44:15.236Z,15.72
2022-12-24T19:46:43.963Z,15.71
2022-12-24T19:49:13.387Z,15.71
2022-12-24T19:51:41.883Z,15.70
2022-12-24T19:54:18.643Z,15.72
2022-12-24T19:56:48.259Z,15.71
2022-12-24T19:59:18.042Z,15.71
2022-12-24T20:01:47.183Z,15.69
2022-12-24T20:04:18.525Z,15.70
2022-12-24T20:06:51.279Z,15.69
2022-12-24T20:09:23.150Z,15.70
2022-12-24T20:11:51.973Z,15.69
2022-12-24T20:14:22.298Z,15.69
2022-12-24T20:16:51.110Z,15.68
2022-12-24T20:19:22.520Z,15.69
2022-12-24T20:21:50.959Z,15.66
2022-12-24T20:24:19.840Z,15.67
2022-12-24T20:26:49.527Z,15.68
2022-12-24T20:29:18.056Z,15.67
2022-12-24T20:31:48.290Z,15.66
2022-12-24T20:34:16.668Z,15.65
2022-12-24T20:36:45.107Z,15.66
2022-12-24T20:39:14.130Z,15.65
2022-12-24T20:41:42.664Z,15.67
2022-12-24T20:44:12.502Z,15.66
2022-12-24T20:46:40.905Z,15.65
2022-12-24T20:49:12.683Z,15.66
2022-12-24T20:51:41.146Z,15.66
2022-12-24T20:54:14.010Z,15.66
2022-12-24T20:56:45.194Z,15.66
2022-12-24T20:59:26.418Z,15.64
2022-12-24T21:01:55.291Z,15.65
2022-12-24T21:04:25.658Z,15.66
2022-12-24T21:06:54.409Z,15.65
2022-12-24T21:09:23.103Z,15.65
2022-12-24T21:12:08.908Z,15.64
2022-12-24T21:14:37.319Z,15.63
2022-12-24T21:17:09.423Z,15.63
2022-12-24T21:19:41.806Z,15.64
2022-12-24T21:22:10.165Z,15.65
2022-12-24T21:24:38.729Z,15.64
2022-12-24T21:27:07.095Z,15.64
2022-12-24T21:29:35.721Z,15.63
2022-12-24T21:32:07.340Z,15.63
2022-12-24T21:34:36.307Z,15.61
2022-12-24T21:37:06.685Z,15.61
2022-12-24T21:39:35.138Z,15.59
2022-12-24T21:42:03.899Z,15.58
2022-12-24T21:44:32.710Z,15.58
2022-12-24T21:47:01.712Z,15.57
2022-12-24T21:49:49.542Z,15.57
2022-12-24T21:52:19.510Z,15.56
2022-12-24T21:54:47.184Z,15.55
2022-12-24T21:57:33.179Z,15.55
2022-12-24T22:00:21.557Z,15.52
2022-12-24T22:02:52.020Z,15.51
2022-12-24T22:05:20.953Z,15.52
2022-12-24T22:08:20.454Z,15.51
2022-12-24T22:11:06.363Z,15.49
2022-12-24T22:13:34.882Z,15.48
2022-12-24T22:16:03.324Z,15.48
2022-12-24T22:18:32.403Z,15.48
2022-12-24T22:21:04.937Z,15.49
2022-12-24T22:23:41.944Z,15.48
2022-12-24T22:26:14.357Z,15.47
2022-12-24T22:28:43.070Z,15.45
2022-12-24T22:31:27.337Z,15.45
2022-12-24T22:33:56.270Z,15.44
2022-12-24T22:36:24.658Z,15.44
2022-12-24T22:38:53.344Z,15.44
2022-12-24T22:41:22.024Z,15.43
2022-12-24T22:43:51.146Z,15.42
2022-12-24T22:46:20.111Z,15.40
2022-12-24T22:48:49.930Z,15.42
2022-12-24T22:51:22.867Z,15.42
2022-12-24T22:53:51.465Z,15.41
2022-12-24T22:56:24.538Z,15.40
2022-12-24T22:58:55.921Z,15.39
2022-12-24T23:01:34.444Z,15.39
2022-12-24T23:04:06.063Z,15.39
2022-12-24T23:06:37.278Z,15.39
2022-12-24T23:09:10.303Z,15.38
2022-12-24T23:11:38.917Z,15.36
2022-12-24T23:14:25.171Z,15.37
2022-12-24T23:16:53.763Z,15.36
2022-12-24T23:19:23.683Z,15.35
2022-12-24T23:21:52.311Z,15.34
2022-12-24T23:24:20.787Z,15.33
2022-12-24T23:26:49.123Z,15.33
2022-12-24T23:29:17.960Z,15.31
2022-12-24T23:31:46.483Z,15.32
2022-12-24T23:34:14.943Z,15.30
2022-12-24T23:36:44.757Z,15.29
2022-12-24T23:39:14.169Z,15.29
2022-12-24T23:41:42.644Z,15.27
2022-12-24T23:44:11.054Z,15.28
2022-12-24T23:46:39.890Z,15.28
2022-12-24T23:49:08.467Z,15.27
2022-12-24T23:51:37.211Z,15.26
2022-12-24T23:54:07.151Z,15.27
2022-12-24T23:56:35.509Z,15.27
2022-12-24T23:59:04.722Z,15.26
